createdAt,value
2016-09-09T00:00:11.258Z,15.43
2016-09-09T00:01:11.268Z,15.51
2016-09-09T00:02:11.243Z,15.44
2016-09-09T00:03:11.268Z,15.47
2016-09-09T00:04:11.242Z,15.52
2016-09-09T00:05:11.242Z,15.47
2016-09-09T00:06:11.229Z,15.53
2016-09-09T00:07:11.233Z,15.55
2016-09-09T00:08:11.228Z,15.58
2016-09-09T00:09:11.221Z,15.49
2016-09-09T00:10:11.223Z,15.51
2016-09-09T00:11:11.221Z,15.53
2016-09-09T00:12:11.204Z,15.45
2016-09-09T00:13:11.204Z,15.47
2016-09-09T00:14:11.205Z,15.44
2016-09-09T00:15:11.200Z,15.44
2016-09-09T00:16:11.192Z,15.53
2016-09-09T00:17:11.189Z,15.43
2016-09-09T00:18:11.496Z,15.41
2016-09-09T00:19:11.187Z,15.38
2016-09-09T00:20:11.187Z,15.49
2016-09-09T00:21:11.186Z,15.41
2016-09-09T00:22:11.173Z,15.43
2016-09-09T00:23:11.171Z,15.41
2016-09-09T00:24:11.161Z,15.38
2016-09-09T00:25:11.159Z,15.49
2016-09-09T00:26:11.169Z,15.41
2016-09-09T00:27:11.163Z,15.44
2016-09-09T00:28:11.155Z,15.33
2016-09-09T00:29:11.156Z,15.35
2016-09-09T00:30:11.149Z,15.37
2016-09-09T00:31:11.131Z,15.34
2016-09-09T00:32:11.136Z,15.37
2016-09-09T00:33:11.450Z,15.31
2016-09-09T00:34:11.123Z,15.37
2016-09-09T00:35:11.124Z,15.19
2016-09-09T00:36:11.119Z,15.2
2016-09-09T00:37:11.120Z,15.19
2016-09-09T00:38:11.115Z,15.18
2016-09-09T00:39:11.110Z,15.18
2016-09-09T00:40:11.099Z,15.22
2016-09-09T00:41:11.097Z,15.19
2016-09-09T00:42:11.089Z,15.13
2016-09-09T00:43:11.091Z,15.08
2016-09-09T00:44:11.119Z,15.02
2016-09-09T00:45:11.084Z,15.02
2016-09-09T00:46:11.077Z,15.01
2016-09-09T00:47:11.087Z,15.04
2016-09-09T00:48:11.082Z,15.05
2016-09-09T00:49:11.072Z,15.04
2016-09-09T00:50:11.068Z,15.04
2016-09-09T00:51:11.059Z,15.07
2016-09-09T00:52:11.107Z,15.05
2016-09-09T00:53:11.051Z,15.08
2016-09-09T00:54:11.051Z,15.02
2016-09-09T00:55:11.099Z,15.07
2016-09-09T00:56:11.032Z,15
2016-09-09T00:57:11.032Z,15.1
2016-09-09T00:58:11.056Z,15.04
2016-09-09T00:59:11.358Z,15.05
2016-09-09T01:00:11.022Z,15.01
2016-09-09T01:01:11.030Z,15
2016-09-09T01:02:11.022Z,14.98
2016-09-09T01:03:11.007Z,15
2016-09-09T01:04:11.014Z,15.02
2016-09-09T01:05:11.009Z,15.02
2016-09-09T01:06:10.994Z,15.01
2016-09-09T01:07:10.998Z,15.02
2016-09-09T01:08:10.986Z,14.9
2016-09-09T01:09:10.989Z,14.89
2016-09-09T01:10:11.048Z,15
2016-09-09T01:11:10.981Z,15
2016-09-09T01:12:10.977Z,14.9
2016-09-09T01:13:10.968Z,14.97
2016-09-09T01:14:10.979Z,14.89
2016-09-09T01:15:10.961Z,14.86
2016-09-09T01:16:10.961Z,14.89
2016-09-09T01:17:10.955Z,14.86
2016-09-09T01:18:10.974Z,14.83
2016-09-09T01:19:10.946Z,14.82
2016-09-09T01:20:10.943Z,14.87
2016-09-09T01:21:10.942Z,14.74
2016-09-09T01:22:10.940Z,14.74
2016-09-09T01:23:10.939Z,14.74
2016-09-09T01:24:10.925Z,14.75
2016-09-09T01:25:10.922Z,14.69
2016-09-09T01:26:11.236Z,14.7
2016-09-09T01:27:10.908Z,14.66
2016-09-09T01:28:10.907Z,14.64
2016-09-09T01:29:10.895Z,14.66
2016-09-09T01:30:10.897Z,14.67
2016-09-09T01:31:10.892Z,14.7
2016-09-09T01:32:10.901Z,14.63
2016-09-09T01:33:10.886Z,14.66
2016-09-09T01:34:10.888Z,14.69
2016-09-09T01:35:10.886Z,14.66
2016-09-09T01:36:10.877Z,14.64
2016-09-09T01:37:10.868Z,14.7
2016-09-09T01:38:10.871Z,14.71
2016-09-09T01:39:10.857Z,14.63
2016-09-09T01:40:10.865Z,14.7
2016-09-09T01:41:10.850Z,14.66
2016-09-09T01:42:10.850Z,14.67
2016-09-09T01:43:10.842Z,14.66
2016-09-09T01:44:10.856Z,14.69
2016-09-09T01:45:10.834Z,14.66
2016-09-09T01:46:10.833Z,14.69
2016-09-09T01:47:10.819Z,14.64
2016-09-09T01:48:10.833Z,14.66
2016-09-09T01:49:10.820Z,14.64
2016-09-09T01:50:10.834Z,14.66
2016-09-09T01:51:10.839Z,14.6
2016-09-09T01:52:10.815Z,14.63
2016-09-09T01:53:10.791Z,14.6
2016-09-09T01:54:10.793Z,14.49
2016-09-09T01:55:10.835Z,14.53
2016-09-09T01:56:10.783Z,14.61
2016-09-09T01:57:10.776Z,14.57
2016-09-09T01:58:10.776Z,14.49
2016-09-09T01:59:10.761Z,14.49
2016-09-09T02:00:10.769Z,14.48
2016-09-09T02:01:10.766Z,14.49
2016-09-09T02:02:10.753Z,14.46
2016-09-09T02:03:10.747Z,14.45
2016-09-09T02:04:10.741Z,14.49
2016-09-09T02:05:10.737Z,14.51
2016-09-09T02:06:10.743Z,14.44
2016-09-09T02:07:10.730Z,14.49
2016-09-09T02:08:10.735Z,14.45
2016-09-09T02:09:10.725Z,14.49
2016-09-09T02:10:10.722Z,14.52
2016-09-09T02:11:10.717Z,14.48
2016-09-09T02:12:10.708Z,14.51
2016-09-09T02:13:10.902Z,14.51
2016-09-09T02:14:10.695Z,14.59
2016-09-09T02:15:10.714Z,14.53
2016-09-09T02:16:10.688Z,14.48
2016-09-09T02:17:10.686Z,14.6
2016-09-09T02:18:10.687Z,14.51
2016-09-09T02:19:10.674Z,14.52
2016-09-09T02:20:10.677Z,14.52
2016-09-09T02:21:10.678Z,14.46
2016-09-09T02:22:10.665Z,14.46
2016-09-09T02:23:10.663Z,14.46
2016-09-09T02:24:10.671Z,14.48
2016-09-09T02:25:10.648Z,14.51
2016-09-09T02:26:10.644Z,14.52
2016-09-09T02:27:10.643Z,14.45
2016-09-09T02:28:10.641Z,14.42
2016-09-09T02:29:10.656Z,14.38
2016-09-09T02:30:10.630Z,14.34
2016-09-09T02:31:10.621Z,14.36
2016-09-09T02:32:10.622Z,14.34
2016-09-09T02:33:10.616Z,14.33
2016-09-09T02:34:10.626Z,14.3
2016-09-09T02:35:11.013Z,14.34
2016-09-09T02:36:10.612Z,14.38
2016-09-09T02:37:10.607Z,14.38
2016-09-09T02:38:10.597Z,14.36
2016-09-09T02:39:10.586Z,14.3
2016-09-09T02:40:10.583Z,14.27
2016-09-09T02:41:10.589Z,14.28
2016-09-09T02:42:10.574Z,14.28
2016-09-09T02:43:10.570Z,14.34
2016-09-09T02:44:10.568Z,14.28
2016-09-09T02:45:10.877Z,14.24
2016-09-09T02:46:10.564Z,14.3
2016-09-09T02:47:10.556Z,14.27
2016-09-09T02:48:10.546Z,14.26
2016-09-09T02:49:10.558Z,14.3
2016-09-09T02:50:10.550Z,14.27
2016-09-09T02:51:10.541Z,14.27
2016-09-09T02:52:10.550Z,14.24
2016-09-09T02:53:10.527Z,14.27
2016-09-09T02:54:10.523Z,14.24
2016-09-09T02:55:10.520Z,14.24
2016-09-09T02:56:10.525Z,14.21
2016-09-09T02:57:10.503Z,14.28
2016-09-09T02:58:10.508Z,14.26
2016-09-09T02:59:10.499Z,14.24
2016-09-09T03:00:10.494Z,14.26
2016-09-09T03:01:10.493Z,14.26
2016-09-09T03:02:10.482Z,14.19
2016-09-09T03:03:10.486Z,14.2
2016-09-09T03:04:10.482Z,14.09
2016-09-09T03:05:10.486Z,14.11
2016-09-09T03:06:10.463Z,14.12
2016-09-09T03:07:10.489Z,14.08
2016-09-09T03:08:10.449Z,14.08
2016-09-09T03:09:10.455Z,14.08
2016-09-09T03:10:10.451Z,14.08
2016-09-09T03:11:10.444Z,14.08
2016-09-09T03:12:10.440Z,14.02
2016-09-09T03:13:10.445Z,14.09
2016-09-09T03:14:10.429Z,14.09
2016-09-09T03:15:10.427Z,14.06
2016-09-09T03:16:10.418Z,14.09
2016-09-09T03:17:10.417Z,14.06
2016-09-09T03:18:10.410Z,14.12
2016-09-09T03:19:10.408Z,14.06
2016-09-09T03:20:10.400Z,14.03
2016-09-09T03:21:10.407Z,14.06
2016-09-09T03:22:10.409Z,14.12
2016-09-09T03:23:10.385Z,14.11
2016-09-09T03:24:10.374Z,14.09
2016-09-09T03:25:10.378Z,14.12
2016-09-09T03:26:10.362Z,14.12
2016-09-09T03:27:10.368Z,14.11
2016-09-09T03:28:10.354Z,14.08
2016-09-09T03:29:10.352Z,14.09
2016-09-09T03:30:10.347Z,14.06
2016-09-09T03:31:10.343Z,14.11
2016-09-09T03:32:10.356Z,14.08
2016-09-09T03:33:10.330Z,14.13
2016-09-09T03:34:10.332Z,14.15
2016-09-09T03:35:10.322Z,14.09
2016-09-09T03:36:10.315Z,14.12
2016-09-09T03:37:10.313Z,14.11
2016-09-09T03:38:10.315Z,14.09
2016-09-09T03:39:10.316Z,14.19
2016-09-09T03:40:10.303Z,14.15
2016-09-09T03:41:10.308Z,14.09
2016-09-09T03:42:10.295Z,14.16
2016-09-09T03:43:10.281Z,14.12
2016-09-09T03:44:10.279Z,14.11
2016-09-09T03:45:10.281Z,14.19
2016-09-09T03:46:10.278Z,14.08
2016-09-09T03:47:10.270Z,14.12
2016-09-09T03:48:10.257Z,14.09
2016-09-09T03:49:10.279Z,14.09
2016-09-09T03:50:10.255Z,14.02
2016-09-09T03:51:10.582Z,13.99
2016-09-09T03:52:10.245Z,14.05
2016-09-09T03:53:10.249Z,14.02
2016-09-09T03:54:10.250Z,13.97
2016-09-09T03:55:10.234Z,13.97
2016-09-09T03:56:10.244Z,13.99
2016-09-09T03:57:10.227Z,14.06
2016-09-09T03:58:10.212Z,14.01
2016-09-09T03:59:10.520Z,14.01
2016-09-09T04:00:10.202Z,13.97
2016-09-09T04:01:10.199Z,13.95
2016-09-09T04:02:10.515Z,13.94
2016-09-09T04:03:10.194Z,13.95
2016-09-09T04:04:10.192Z,13.91
2016-09-09T04:05:10.189Z,13.91
2016-09-09T04:06:10.184Z,13.88
2016-09-09T04:07:10.173Z,13.94
2016-09-09T04:08:10.157Z,13.88
2016-09-09T04:09:10.162Z,13.94
2016-09-09T04:10:10.162Z,13.9
2016-09-09T04:11:10.150Z,13.95
2016-09-09T04:12:10.149Z,13.93
2016-09-09T04:13:10.140Z,13.93
2016-09-09T04:14:10.139Z,13.99
2016-09-09T04:15:10.177Z,13.91
2016-09-09T04:16:10.133Z,13.9
2016-09-09T04:17:10.120Z,13.94
2016-09-09T04:18:10.121Z,13.94
2016-09-09T04:19:10.426Z,13.94
2016-09-09T04:20:10.111Z,13.95
2016-09-09T04:21:10.425Z,13.91
2016-09-09T04:22:10.114Z,13.9
2016-09-09T04:23:10.092Z,13.9
2016-09-09T04:24:10.084Z,13.9
2016-09-09T04:25:10.076Z,13.99
2016-09-09T04:26:10.072Z,14.01
2016-09-09T04:27:10.068Z,13.91
2016-09-09T04:28:10.069Z,13.93
2016-09-09T04:29:10.077Z,13.95
2016-09-09T04:30:10.060Z,14.01
2016-09-09T04:31:10.089Z,13.97
2016-09-09T04:32:10.048Z,13.97
2016-09-09T04:33:10.038Z,14.02
2016-09-09T04:34:10.041Z,13.94
2016-09-09T04:35:10.026Z,14.02
2016-09-09T04:36:10.035Z,13.99
2016-09-09T04:37:10.020Z,13.95
2016-09-09T04:38:10.329Z,13.99
2016-09-09T04:39:10.029Z,13.95
2016-09-09T04:40:10.004Z,13.97
2016-09-09T04:41:24.886Z,14.01
2016-09-09T04:42:10.308Z,13.94
2016-09-09T04:43:09.986Z,13.94
2016-09-09T04:44:09.986Z,13.97
2016-09-09T04:45:09.980Z,13.93
2016-09-09T04:46:09.973Z,14.02
2016-09-09T04:47:09.973Z,14.01
2016-09-09T04:48:09.976Z,14.01
2016-09-09T04:49:10.268Z,14.01
2016-09-09T04:50:09.960Z,14.13
2016-09-09T04:51:09.947Z,14.09
2016-09-09T04:52:09.950Z,14.13
2016-09-09T04:53:09.944Z,14.19
2016-09-09T04:54:09.934Z,14.28
2016-09-09T04:55:09.933Z,14.28
2016-09-09T04:56:10.156Z,14.31
2016-09-09T04:57:09.916Z,14.44
2016-09-09T04:58:09.910Z,14.46
2016-09-09T04:59:10.239Z,14.49
2016-09-09T05:00:09.911Z,14.56
2016-09-09T05:01:09.902Z,14.74
2016-09-09T05:02:10.228Z,14.67
2016-09-09T05:03:09.892Z,14.79
2016-09-09T05:04:09.892Z,14.89
2016-09-09T05:05:09.897Z,14.8
2016-09-09T05:06:09.882Z,15
2016-09-09T05:07:09.873Z,15.02
2016-09-09T05:08:09.874Z,15.02
2016-09-09T05:09:09.857Z,15.07
2016-09-09T05:10:09.848Z,15.1
2016-09-09T05:11:09.864Z,15.18
2016-09-09T05:12:09.854Z,15.2
2016-09-09T05:13:09.848Z,15.31
2016-09-09T05:14:09.847Z,15.26
2016-09-09T05:15:09.835Z,15.31
2016-09-09T05:16:09.828Z,15.45
2016-09-09T05:17:09.828Z,15.45
2016-09-09T05:18:09.830Z,15.4
2016-09-09T05:19:09.826Z,15.44
2016-09-09T05:20:09.820Z,15.49
2016-09-09T05:21:09.809Z,15.47
2016-09-09T05:22:09.798Z,15.52
2016-09-09T05:23:09.789Z,15.62
2016-09-09T05:24:09.791Z,15.59
2016-09-09T05:25:09.787Z,15.59
2016-09-09T05:26:09.782Z,15.68
2016-09-09T05:27:09.782Z,15.67
2016-09-09T05:28:09.789Z,15.73
2016-09-09T05:29:09.769Z,15.73
2016-09-09T05:30:09.776Z,15.74
2016-09-09T05:31:09.764Z,15.88
2016-09-09T05:32:09.761Z,15.92
2016-09-09T05:33:09.770Z,15.91
2016-09-09T05:34:09.759Z,15.83
2016-09-09T05:35:09.744Z,15.95
2016-09-09T05:36:09.738Z,15.95
2016-09-09T05:37:10.054Z,15.93
2016-09-09T05:38:09.731Z,16
2016-09-09T05:39:09.730Z,16.04
2016-09-09T05:40:09.734Z,15.98
2016-09-09T05:41:09.725Z,15.96
2016-09-09T05:42:09.719Z,15.99
2016-09-09T05:43:09.713Z,15.98
2016-09-09T05:44:09.710Z,16
2016-09-09T05:45:09.712Z,15.93
2016-09-09T05:46:09.706Z,15.98
2016-09-09T05:47:09.705Z,16.02
2016-09-09T05:48:09.711Z,16.02
2016-09-09T05:49:09.689Z,15.95
2016-09-09T05:50:09.691Z,16.02
2016-09-09T05:51:09.682Z,16.07
2016-09-09T05:52:09.673Z,16.07
2016-09-09T05:53:09.678Z,16.06
2016-09-09T05:54:09.667Z,15.99
2016-09-09T05:55:09.667Z,16.08
2016-09-09T05:56:09.667Z,16.11
2016-09-09T05:57:09.657Z,16.13
2016-09-09T05:58:09.661Z,16.11
2016-09-09T05:59:09.658Z,16.17
2016-09-09T06:00:09.655Z,16.16
2016-09-09T06:01:09.649Z,16.11
2016-09-09T06:02:09.647Z,16.21
2016-09-09T06:03:09.644Z,16.29
2016-09-09T06:04:09.647Z,16.26
2016-09-09T06:05:09.630Z,16.37
2016-09-09T06:06:09.643Z,16.27
2016-09-09T06:07:09.626Z,16.44
2016-09-09T06:08:09.621Z,16.47
2016-09-09T06:09:09.626Z,16.54
2016-09-09T06:10:09.620Z,16.59
2016-09-09T06:11:09.610Z,16.67
2016-09-09T06:12:09.604Z,16.74
2016-09-09T06:13:09.604Z,16.85
2016-09-09T06:14:09.597Z,16.87
2016-09-09T06:15:09.597Z,17.02
2016-09-09T06:16:09.594Z,17.05
2016-09-09T06:17:09.587Z,17
2016-09-09T06:18:09.586Z,17.07
2016-09-09T06:19:09.596Z,17.13
2016-09-09T06:20:09.580Z,17.21
2016-09-09T06:21:09.572Z,17.28
2016-09-09T06:22:09.583Z,17.3
2016-09-09T06:23:09.566Z,17.36
2016-09-09T06:24:09.574Z,17.45
2016-09-09T06:25:09.910Z,17.55
2016-09-09T06:26:09.559Z,17.6
2016-09-09T06:27:09.560Z,17.63
2016-09-09T06:28:09.567Z,17.71
2016-09-09T06:29:09.552Z,17.84
2016-09-09T06:30:09.546Z,17.87
2016-09-09T06:31:09.543Z,17.9
2016-09-09T06:32:09.865Z,18.01
2016-09-09T06:33:09.544Z,18.06
2016-09-09T06:34:09.540Z,18.1
2016-09-09T06:35:09.535Z,18.06
2016-09-09T06:36:09.541Z,18.2
2016-09-09T06:37:09.528Z,18.2
2016-09-09T06:38:09.528Z,18.32
2016-09-09T06:39:09.535Z,18.24
2016-09-09T06:40:09.534Z,18.42
2016-09-09T06:41:09.528Z,18.47
2016-09-09T06:42:09.518Z,18.53
2016-09-09T06:43:09.828Z,18.68
2016-09-09T06:44:09.509Z,18.71
2016-09-09T06:45:09.520Z,18.65
2016-09-09T06:46:09.512Z,18.78
2016-09-09T06:47:09.509Z,18.9
2016-09-09T06:48:09.503Z,18.9
2016-09-09T06:49:09.500Z,18.93
2016-09-09T06:50:09.506Z,18.96
2016-09-09T06:51:09.817Z,18.9
2016-09-09T06:52:09.493Z,18.97
2016-09-09T06:53:09.496Z,19.06
2016-09-09T06:54:09.510Z,19.1
2016-09-09T06:55:09.486Z,19.06
2016-09-09T06:56:09.491Z,19.06
2016-09-09T06:57:09.485Z,19.25
2016-09-09T06:58:09.497Z,19.3
2016-09-09T06:59:09.481Z,19.24
2016-09-09T07:00:09.482Z,19.28
2016-09-09T07:01:09.487Z,19.28
2016-09-09T07:02:09.484Z,19.34
2016-09-09T07:03:09.478Z,19.32
2016-09-09T07:04:09.468Z,19.43
2016-09-09T07:05:09.474Z,19.4
2016-09-09T07:06:09.468Z,19.46
2016-09-09T07:07:09.516Z,19.52
2016-09-09T07:08:09.467Z,19.49
2016-09-09T07:09:09.467Z,19.57
2016-09-09T07:10:09.466Z,19.56
2016-09-09T07:11:09.462Z,19.67
2016-09-09T07:12:09.455Z,19.68
2016-09-09T07:13:09.462Z,19.67
2016-09-09T07:14:09.462Z,19.8
2016-09-09T07:15:09.469Z,19.71
2016-09-09T07:16:09.453Z,19.79
2016-09-09T07:17:09.455Z,19.86
2016-09-09T07:18:09.449Z,19.87
2016-09-09T07:19:09.455Z,19.9
2016-09-09T07:20:09.454Z,19.92
2016-09-09T07:21:09.830Z,20
2016-09-09T07:22:09.449Z,19.9
2016-09-09T07:23:09.455Z,19.93
2016-09-09T07:24:09.445Z,19.95
2016-09-09T07:25:09.448Z,20.01
2016-09-09T07:26:09.455Z,20.01
2016-09-09T07:27:09.452Z,19.98
2016-09-09T07:28:09.460Z,20.02
2016-09-09T07:29:09.448Z,20.02
2016-09-09T07:30:09.444Z,20.02
2016-09-09T07:31:09.461Z,20.01
2016-09-09T07:32:09.445Z,20.07
2016-09-09T07:33:09.444Z,20.04
2016-09-09T07:34:09.446Z,20.02
2016-09-09T07:35:09.454Z,20.04
2016-09-09T07:36:09.433Z,20.04
2016-09-09T07:37:09.436Z,20.02
2016-09-09T07:38:09.432Z,20.05
2016-09-09T07:39:09.440Z,20.01
2016-09-09T07:40:09.433Z,20.04
2016-09-09T07:41:09.439Z,20.1
2016-09-09T07:42:09.428Z,20.19
2016-09-09T07:43:09.430Z,20.15
2016-09-09T07:44:09.428Z,20.16
2016-09-09T07:45:09.750Z,20.25
2016-09-09T07:46:09.443Z,20.26
2016-09-09T07:47:09.427Z,20.27
2016-09-09T07:48:09.437Z,20.23
2016-09-09T07:49:09.421Z,20.25
2016-09-09T07:50:09.419Z,20.38
2016-09-09T07:51:09.419Z,20.35
2016-09-09T07:52:09.422Z,20.38
2016-09-09T07:53:09.416Z,20.44
2016-09-09T07:54:09.418Z,20.51
2016-09-09T07:55:09.415Z,20.57
2016-09-09T07:56:09.427Z,20.6
2016-09-09T07:57:09.436Z,20.72
2016-09-09T07:58:09.413Z,20.72
2016-09-09T07:59:09.423Z,20.68
2016-09-09T08:00:09.440Z,20.79
2016-09-09T08:01:09.415Z,20.76
2016-09-09T08:02:09.418Z,20.86
2016-09-09T08:03:09.410Z,20.97
2016-09-09T08:04:09.417Z,20.98
2016-09-09T08:05:09.413Z,20.98
2016-09-09T08:06:09.622Z,21
2016-09-09T08:07:09.422Z,21.13
2016-09-09T08:08:09.410Z,21.19
2016-09-09T08:09:09.410Z,21.3
2016-09-09T08:10:09.414Z,21.33
2016-09-09T08:11:09.419Z,21.33
2016-09-09T08:12:09.425Z,21.36
2016-09-09T08:13:09.414Z,21.45
2016-09-09T08:14:09.415Z,21.34
2016-09-09T08:15:09.407Z,21.4
2016-09-09T08:16:09.427Z,21.46
2016-09-09T08:17:09.479Z,21.51
2016-09-09T08:18:09.432Z,21.56
2016-09-09T08:19:09.409Z,21.62
2016-09-09T08:20:09.416Z,21.61
2016-09-09T08:21:09.418Z,21.62
2016-09-09T08:22:09.407Z,21.7
2016-09-09T08:23:09.411Z,21.62
2016-09-09T08:24:09.411Z,21.74
2016-09-09T08:25:09.418Z,21.73
2016-09-09T08:26:09.431Z,21.96
2016-09-09T08:27:09.412Z,21.9
2016-09-09T08:28:09.427Z,21.92
2016-09-09T08:29:09.410Z,22.05
2016-09-09T08:30:09.420Z,22.04
2016-09-09T08:31:09.411Z,22.08
2016-09-09T08:32:09.414Z,22.09
2016-09-09T08:33:09.410Z,22
2016-09-09T08:34:09.409Z,22.23
2016-09-09T08:35:09.423Z,22.16
2016-09-09T08:36:09.421Z,22.2
2016-09-09T08:37:09.407Z,22.29
2016-09-09T08:38:09.409Z,22.27
2016-09-09T08:39:09.426Z,22.33
2016-09-09T08:40:09.413Z,22.33
2016-09-09T08:41:09.428Z,22.33
2016-09-09T08:42:09.415Z,22.31
2016-09-09T08:43:09.556Z,22.41
2016-09-09T08:44:09.411Z,22.51
2016-09-09T08:45:09.949Z,22.46
2016-09-09T08:46:09.638Z,22.44
2016-09-09T08:47:09.479Z,22.54
2016-09-09T08:48:09.845Z,22.45
2016-09-09T08:49:09.439Z,22.51
2016-09-09T08:50:09.424Z,22.45
2016-09-09T08:51:09.414Z,22.46
2016-09-09T08:52:09.427Z,22.57
2016-09-09T08:53:09.422Z,22.49
2016-09-09T08:54:09.424Z,22.51
2016-09-09T08:55:09.424Z,22.51
2016-09-09T08:56:09.421Z,22.51
2016-09-09T08:57:09.424Z,22.49
2016-09-09T08:58:09.421Z,22.46
2016-09-09T08:59:09.427Z,22.42
2016-09-09T09:00:09.425Z,22.41
2016-09-09T09:01:09.426Z,22.44
2016-09-09T09:02:09.421Z,22.46
2016-09-09T09:03:09.423Z,22.48
2016-09-09T09:04:09.429Z,22.55
2016-09-09T09:05:09.427Z,22.52
2016-09-09T09:06:09.427Z,22.66
2016-09-09T09:07:09.434Z,22.75
2016-09-09T09:08:09.430Z,22.79
2016-09-09T09:09:09.432Z,22.94
2016-09-09T09:10:09.429Z,23.07
2016-09-09T09:11:09.433Z,23.01
2016-09-09T09:12:09.444Z,23.14
2016-09-09T09:13:09.445Z,23.12
2016-09-09T09:14:09.430Z,23.1
2016-09-09T09:15:09.436Z,23.15
2016-09-09T09:16:09.440Z,23.26
2016-09-09T09:17:09.437Z,23.19
2016-09-09T09:18:09.648Z,23.1
2016-09-09T09:19:09.441Z,22.99
2016-09-09T09:20:09.441Z,23
2016-09-09T09:21:09.454Z,22.91
2016-09-09T09:22:09.439Z,22.86
2016-09-09T09:23:09.470Z,22.75
2016-09-09T09:24:09.480Z,22.78
2016-09-09T09:25:09.448Z,22.63
2016-09-09T09:26:09.441Z,22.61
2016-09-09T09:27:09.460Z,22.61
2016-09-09T09:28:09.447Z,22.67
2016-09-09T09:29:09.448Z,22.73
2016-09-09T09:30:09.450Z,22.69
2016-09-09T09:31:09.452Z,22.63
2016-09-09T09:32:09.453Z,22.69
2016-09-09T09:33:09.450Z,22.73
2016-09-09T09:34:09.453Z,22.7
2016-09-09T09:35:09.456Z,22.79
2016-09-09T09:36:09.463Z,22.78
2016-09-09T09:37:09.457Z,22.79
2016-09-09T09:38:09.449Z,22.67
2016-09-09T09:39:09.469Z,22.75
2016-09-09T09:40:09.641Z,22.7
2016-09-09T09:41:09.470Z,22.79
2016-09-09T09:42:09.493Z,22.86
2016-09-09T09:43:09.461Z,23.06
2016-09-09T09:44:09.458Z,23
2016-09-09T09:45:09.462Z,23.03
2016-09-09T09:46:09.464Z,23.06
2016-09-09T09:47:09.468Z,23
2016-09-09T09:48:09.463Z,22.99
2016-09-09T09:49:09.466Z,23.03
2016-09-09T09:50:09.463Z,23.01
2016-09-09T09:51:09.480Z,23.03
2016-09-09T09:52:09.475Z,23.14
2016-09-09T09:53:09.466Z,23.19
2016-09-09T09:54:09.471Z,23.19
2016-09-09T09:55:09.466Z,23.1
2016-09-09T09:56:09.479Z,23.15
2016-09-09T09:57:09.476Z,23
2016-09-09T09:58:09.485Z,23.1
2016-09-09T09:59:09.468Z,23.25
2016-09-09T10:00:09.476Z,23.29
2016-09-09T10:01:09.785Z,23.41
2016-09-09T10:02:09.490Z,23.57
2016-09-09T10:03:09.483Z,23.56
2016-09-09T10:04:09.485Z,23.52
2016-09-09T10:05:09.474Z,23.55
2016-09-09T10:06:09.479Z,23.57
2016-09-09T10:07:09.478Z,23.53
2016-09-09T10:08:09.486Z,23.5
2016-09-09T10:09:09.482Z,23.48
2016-09-09T10:10:09.484Z,23.62
2016-09-09T10:11:09.483Z,23.57
2016-09-09T10:12:09.485Z,23.47
2016-09-09T10:13:09.489Z,23.41
2016-09-09T10:14:09.498Z,23.37
2016-09-09T10:15:09.523Z,23.26
2016-09-09T10:16:09.834Z,23.29
2016-09-09T10:17:09.492Z,23.28
2016-09-09T10:18:09.500Z,23.22
2016-09-09T10:19:09.503Z,23.15
2016-09-09T10:20:09.501Z,23.26
2016-09-09T10:21:09.503Z,23.12
2016-09-09T10:22:09.506Z,23.16
2016-09-09T10:23:09.498Z,23.16
2016-09-09T10:24:09.514Z,23.14
2016-09-09T10:25:09.513Z,23.1
2016-09-09T10:26:09.498Z,23.01
2016-09-09T10:27:09.519Z,23
2016-09-09T10:28:09.505Z,22.97
2016-09-09T10:29:09.506Z,22.97
2016-09-09T10:30:09.511Z,23.03
2016-09-09T10:31:09.835Z,22.97
2016-09-09T10:32:09.526Z,23.01
2016-09-09T10:33:09.507Z,23.24
2016-09-09T10:34:09.508Z,23.18
2016-09-09T10:35:09.515Z,23.25
2016-09-09T10:36:09.516Z,23.38
2016-09-09T10:37:09.511Z,23.28
2016-09-09T10:38:09.513Z,23.4
2016-09-09T10:39:09.525Z,23.38
2016-09-09T10:40:09.522Z,23.41
2016-09-09T10:41:09.513Z,23.45
2016-09-09T10:42:09.516Z,23.52
2016-09-09T10:43:09.522Z,23.56
2016-09-09T10:44:09.522Z,23.57
2016-09-09T10:45:09.527Z,23.57
2016-09-09T10:46:09.518Z,23.63
2016-09-09T10:47:09.842Z,23.62
2016-09-09T10:48:09.528Z,23.62
2016-09-09T10:49:09.538Z,23.53
2016-09-09T10:50:09.531Z,23.55
2016-09-09T10:51:09.531Z,23.53
2016-09-09T10:52:09.529Z,23.52
2016-09-09T10:53:09.529Z,23.47
2016-09-09T10:54:09.531Z,23.5
2016-09-09T10:55:09.534Z,23.44
2016-09-09T10:56:09.529Z,23.52
2016-09-09T10:57:09.537Z,23.52
2016-09-09T10:58:09.534Z,23.41
2016-09-09T10:59:09.535Z,23.37
2016-09-09T11:00:09.543Z,23.5
2016-09-09T11:01:09.549Z,23.42
2016-09-09T11:02:09.542Z,23.4
2016-09-09T11:03:09.563Z,23.41
2016-09-09T11:04:09.557Z,23.38
2016-09-09T11:05:09.541Z,23.41
2016-09-09T11:06:09.549Z,23.34
2016-09-09T11:07:09.547Z,23.41
2016-09-09T11:08:09.550Z,23.35
2016-09-09T11:09:09.567Z,23.4
2016-09-09T11:10:09.540Z,23.4
2016-09-09T11:11:09.546Z,23.47
2016-09-09T11:12:09.549Z,23.5
2016-09-09T11:13:09.548Z,23.5
2016-09-09T11:14:09.563Z,23.5
2016-09-09T11:15:09.545Z,23.42
2016-09-09T11:16:09.553Z,23.42
2016-09-09T11:17:09.554Z,23.45
2016-09-09T11:18:09.578Z,23.5
2016-09-09T11:19:09.567Z,23.42
2016-09-09T11:20:09.559Z,23.42
2016-09-09T11:21:09.557Z,23.48
2016-09-09T11:22:09.872Z,23.47
2016-09-09T11:23:09.572Z,23.56
2016-09-09T11:24:11.027Z,23.53
2016-09-09T11:25:09.575Z,23.53
2016-09-09T11:26:09.577Z,23.57
2016-09-09T11:27:10.467Z,23.67
2016-09-09T11:28:09.577Z,23.64
2016-09-09T11:29:09.571Z,23.64
2016-09-09T11:30:09.572Z,23.7
2016-09-09T11:31:09.579Z,23.71
2016-09-09T11:32:09.570Z,23.77
2016-09-09T11:33:09.580Z,23.7
2016-09-09T11:34:09.582Z,23.75
2016-09-09T11:35:09.584Z,23.62
2016-09-09T11:36:09.588Z,23.66
2016-09-09T11:37:09.905Z,23.59
2016-09-09T11:38:09.598Z,23.62
2016-09-09T11:39:09.586Z,23.59
2016-09-09T11:40:09.594Z,23.66
2016-09-09T11:41:09.600Z,23.64
2016-09-09T11:42:09.590Z,23.77
2016-09-09T11:43:09.610Z,23.71
2016-09-09T11:44:09.589Z,23.72
2016-09-09T11:45:09.591Z,23.71
2016-09-09T11:46:09.602Z,23.75
2016-09-09T11:47:09.592Z,23.74
2016-09-09T11:48:09.601Z,23.79
2016-09-09T11:49:09.606Z,23.81
2016-09-09T11:50:09.598Z,23.92
2016-09-09T11:51:09.602Z,24
2016-09-09T11:52:09.601Z,24.14
2016-09-09T11:53:09.613Z,24.3
2016-09-09T11:54:09.622Z,24.44
2016-09-09T11:55:09.626Z,24.49
2016-09-09T11:56:09.608Z,24.49
2016-09-09T11:57:09.623Z,24.45
2016-09-09T11:58:09.614Z,24.34
2016-09-09T11:59:09.956Z,24.26
2016-09-09T12:00:09.623Z,24.21
2016-09-09T12:01:09.940Z,24.19
2016-09-09T12:02:09.623Z,24.14
2016-09-09T12:03:09.628Z,24.12
2016-09-09T12:04:09.622Z,24.12
2016-09-09T12:05:09.639Z,24.11
2016-09-09T12:06:09.628Z,24.12
2016-09-09T12:07:09.651Z,23.99
2016-09-09T12:08:09.634Z,24.04
2016-09-09T12:09:09.634Z,24.02
2016-09-09T12:10:09.635Z,24.14
2016-09-09T12:11:09.638Z,24.26
2016-09-09T12:12:09.645Z,24.37
2016-09-09T12:13:09.652Z,24.44
2016-09-09T12:14:09.646Z,24.45
2016-09-09T12:15:09.647Z,24.56
2016-09-09T12:16:09.674Z,24.52
2016-09-09T12:17:09.648Z,24.61
2016-09-09T12:18:09.658Z,24.64
2016-09-09T12:19:09.654Z,24.55
2016-09-09T12:20:09.663Z,24.56
2016-09-09T12:21:09.666Z,24.46
2016-09-09T12:22:09.818Z,24.32
2016-09-09T12:23:09.671Z,24.27
2016-09-09T12:24:09.665Z,24.21
2016-09-09T12:25:09.670Z,24.11
2016-09-09T12:26:09.702Z,24.03
2016-09-09T12:27:09.669Z,23.93
2016-09-09T12:28:09.680Z,23.94
2016-09-09T12:29:09.676Z,23.71
2016-09-09T12:30:09.686Z,23.7
2016-09-09T12:31:09.689Z,23.64
2016-09-09T12:32:09.691Z,23.62
2016-09-09T12:33:09.696Z,23.64
2016-09-09T12:34:10.007Z,23.57
2016-09-09T12:35:09.697Z,23.57
2016-09-09T12:36:09.699Z,23.56
2016-09-09T12:37:09.693Z,23.64
2016-09-09T12:38:09.697Z,23.64
2016-09-09T12:39:09.698Z,23.67
2016-09-09T12:40:09.700Z,23.59
2016-09-09T12:41:09.710Z,23.67
2016-09-09T12:42:09.716Z,23.64
2016-09-09T12:43:09.705Z,23.67
2016-09-09T12:44:09.703Z,23.63
2016-09-09T12:45:09.708Z,23.66
2016-09-09T12:46:09.713Z,23.72
2016-09-09T12:47:09.707Z,23.78
2016-09-09T12:48:09.713Z,23.92
2016-09-09T12:49:09.724Z,24.02
2016-09-09T12:50:09.724Z,24.12
2016-09-09T12:51:09.723Z,24.24
2016-09-09T12:52:09.732Z,24.4
2016-09-09T12:53:09.730Z,24.52
2016-09-09T12:54:09.724Z,24.61
2016-09-09T12:55:09.734Z,24.85
2016-09-09T12:56:09.738Z,25